createdAt,value
2018-10-19T00:00:26.006Z,102021.86
2018-10-19T00:02:55.099Z,102016.42
2018-10-19T00:05:23.434Z,102015.86
2018-10-19T00:07:51.729Z,102025.49
2018-10-19T00:10:20.034Z,102017.17
2018-10-19T00:12:48.381Z,102010.28
2018-10-19T00:15:17.235Z,102019.42
2018-10-19T00:17:45.394Z,102019.69
2018-10-19T00:20:13.715Z,102020.23
2018-10-19T00:22:42.039Z,102010.80
2018-10-19T00:25:10.382Z,102009.73
2018-10-19T00:27:39.008Z,102017.97
2018-10-19T00:30:08.761Z,102012.77
2018-10-19T00:32:37.128Z,102015.71
2018-10-19T00:35:06.170Z,102014.31
2018-10-19T00:37:35.037Z,102012.11
2018-10-19T00:40:03.500Z,102014.02
2018-10-19T00:42:31.827Z,102014.56
2018-10-19T00:45:00.269Z,102014.31
2018-10-19T00:47:28.830Z,102006.67
2018-10-19T00:49:57.528Z,102004.78
2018-10-19T00:52:25.863Z,101999.50
2018-10-19T00:54:54.290Z,102005.75
2018-10-19T00:57:22.647Z,102001.70
2018-10-19T00:59:51.146Z,101997.30
2018-10-19T01:02:19.780Z,101999.98
2018-10-19T01:04:48.419Z,101998.61
2018-10-19T01:07:16.782Z,101994.48
2018-10-19T01:09:45.096Z,102000.23
2018-10-19T01:12:20.307Z,101998.03
2018-10-19T01:14:48.734Z,101994.77
2018-10-19T01:17:17.075Z,101987.62
2018-10-19T01:19:45.487Z,101990.34
2018-10-19T01:22:14.060Z,101998.77
2018-10-19T01:24:42.960Z,101987.74
2018-10-19T01:27:11.430Z,101991.61
2018-10-19T01:29:39.739Z,101993.77
2018-10-19T01:32:08.134Z,101996.16
2018-10-19T01:34:36.456Z,101992.66
2018-10-19T01:37:05.781Z,101999.94
2018-10-19T01:39:34.073Z,101997.78
2018-10-19T01:42:02.392Z,102000.77
2018-10-19T01:44:32.230Z,102002.14
2018-10-19T01:47:00.670Z,102002.06
2018-10-19T01:49:29.019Z,102003.64
2018-10-19T01:51:57.337Z,102002.47
2018-10-19T01:54:26.031Z,102005.55
2018-10-19T01:56:54.392Z,101999.85
2018-10-19T01:59:22.711Z,102007.42
2018-10-19T02:01:51.168Z,102001.68
2018-10-19T02:04:19.891Z,102002.13
2018-10-19T02:06:48.263Z,102004.54
2018-10-19T02:09:16.973Z,102002.28
2018-10-19T02:11:45.288Z,102005.48
2018-10-19T02:14:13.870Z,102007.34
2018-10-19T02:16:42.560Z,102002.16
2018-10-19T02:19:10.906Z,102007.87
2018-10-19T02:21:39.219Z,102013.61
2018-10-19T02:24:07.487Z,102009.19
2018-10-19T02:26:36.290Z,102009.68
2018-10-19T02:29:05.011Z,102007.67
2018-10-19T02:31:33.411Z,102018.03
2018-10-19T02:34:01.668Z,102013.02
2018-10-19T02:36:30.106Z,102011.72
2018-10-19T02:38:58.899Z,102018.56
2018-10-19T02:41:27.337Z,102015.16
2018-10-19T02:43:56.590Z,102016.84
2018-10-19T02:46:25.537Z,102024.41
2018-10-19T02:48:53.896Z,102022.42
2018-10-19T02:51:22.198Z,102027.79
2018-10-19T02:53:50.576Z,102025.05
2018-10-19T02:56:19.067Z,102022.47
2018-10-19T02:58:47.605Z,102029.56
2018-10-19T03:01:16.675Z,102027.90
2018-10-19T03:03:44.985Z,102027.98
2018-10-19T03:06:13.652Z,102030.77
2018-10-19T03:08:43.659Z,102033.53
2018-10-19T03:11:12.106Z,102032.75
2018-10-19T03:13:40.536Z,102025.49
2018-10-19T03:16:08.990Z,102025.47
2018-10-19T03:18:37.322Z,102030.12
2018-10-19T03:21:06.086Z,102022.88
2018-10-19T03:23:34.413Z,102030.95
2018-10-19T03:26:02.726Z,102032.27
2018-10-19T03:28:31.031Z,102029.89
2018-10-19T03:30:59.396Z,102026.13
2018-10-19T03:33:28.009Z,102030.50
2018-10-19T03:35:56.328Z,102035.89
2018-10-19T03:38:24.628Z,102031.53
2018-10-19T03:40:52.972Z,102027.77
2018-10-19T03:43:21.284Z,102026.98
2018-10-19T03:45:49.604Z,102025.08
2018-10-19T03:48:17.909Z,102032.44
2018-10-19T03:50:46.281Z,102026.08
2018-10-19T03:53:14.776Z,102025.92
2018-10-19T03:55:43.065Z,102028.18
2018-10-19T03:58:11.522Z,102029.84
2018-10-19T04:03:36.446Z,102034.75
2018-10-19T04:06:05.575Z,102033.67
2018-10-19T04:08:34.850Z,102036.62
2018-10-19T04:11:03.984Z,102029.58
2018-10-19T04:13:33.125Z,102027.38
2018-10-19T04:16:02.379Z,102030.09
2018-10-19T04:18:31.525Z,102025.81
2018-10-19T04:21:00.762Z,102028.70
2018-10-19T04:23:29.920Z,102035.22
2018-10-19T04:25:59.171Z,102028.22
2018-10-19T04:28:28.419Z,102026.53
2018-10-19T04:30:57.967Z,102028.70
2018-10-19T04:33:27.632Z,102030.98
2018-10-19T04:35:56.976Z,102033.85
2018-10-19T04:38:26.013Z,102033.47
2018-10-19T04:40:55.380Z,102032.72
2018-10-19T04:43:25.673Z,102030.26
2018-10-19T04:45:54.980Z,102036.56
2018-10-19T04:48:24.153Z,102042.75
2018-10-19T04:50:53.445Z,102040.52
2018-10-19T04:53:22.656Z,102037.04
2018-10-19T04:55:51.982Z,102044.80
2018-10-19T04:58:21.081Z,102051.09
2018-10-19T05:00:50.313Z,102053.53
2018-10-19T05:03:19.745Z,102055.70
2018-10-19T05:05:49.086Z,102059.90
2018-10-19T05:08:18.315Z,102059.38
2018-10-19T05:10:47.512Z,102062.18
2018-10-19T05:13:16.759Z,102061.53
2018-10-19T05:15:45.976Z,102060.75
2018-10-19T05:18:15.285Z,102060.81
2018-10-19T05:20:44.698Z,102058.84
2018-10-19T05:23:14.335Z,102059.52
2018-10-19T05:25:43.732Z,102060.05
2018-10-19T05:28:13.280Z,102062.62
2018-10-19T05:30:42.706Z,102068.66
2018-10-19T05:33:12.131Z,102068.94
2018-10-19T05:35:41.752Z,102068.28
2018-10-19T05:38:12.534Z,102071.53
2018-10-19T05:40:41.858Z,102074.86
2018-10-19T05:43:11.136Z,102074.33
2018-10-19T05:45:40.244Z,102078.20
2018-10-19T05:48:09.528Z,102079.56
2018-10-19T05:50:38.884Z,102080.96
2018-10-19T05:53:07.991Z,102082.00
2018-10-19T05:55:37.138Z,102086.97
2018-10-19T05:58:07.145Z,102088.95
2018-10-19T06:00:37.571Z,102090.95
2018-10-19T06:03:09.867Z,102089.14
2018-10-19T06:05:39.945Z,102088.36
2018-10-19T06:08:09.559Z,102091.63
2018-10-19T06:10:38.949Z,102096.70
2018-10-19T06:13:09.367Z,102100.10
2018-10-19T06:15:39.817Z,102103.61
2018-10-19T06:18:09.328Z,102097.84
2018-10-19T06:20:41.432Z,102097.28
2018-10-19T06:23:10.825Z,102098.83
2018-10-19T06:25:40.105Z,102101.27
2018-10-19T06:28:09.691Z,102102.84
2018-10-19T06:30:39.054Z,102112.44
2018-10-19T06:33:08.571Z,102111.60
2018-10-19T06:35:38.022Z,102114.41
2018-10-19T06:38:07.934Z,102115.94
2018-10-19T06:40:37.175Z,102117.47
2018-10-19T06:43:06.374Z,102121.06
2018-10-19T06:45:35.622Z,102121.56
2018-10-19T06:48:04.863Z,102127.55
2018-10-19T06:50:34.128Z,102129.52
2018-10-19T06:53:03.236Z,102133.31
2018-10-19T06:55:32.432Z,102127.31
2018-10-19T06:58:01.575Z,102130.34
2018-10-19T07:00:30.913Z,102134.03
2018-10-19T07:03:00.331Z,102137.06
2018-10-19T07:05:29.698Z,102144.50
2018-10-19T07:07:59.132Z,102145.06
2018-10-19T07:10:28.320Z,102144.59
2018-10-19T07:12:57.738Z,102142.32
2018-10-19T07:15:27.020Z,102147.89
2018-10-19T07:17:56.316Z,102143.69
2018-10-19T07:20:25.678Z,102150.17
2018-10-19T07:22:55.101Z,102146.83
2018-10-19T07:25:24.420Z,102157.87
2018-10-19T07:27:53.508Z,102150.02
2018-10-19T07:30:22.823Z,102155.51
2018-10-19T07:32:52.140Z,102150.33
2018-10-19T07:35:21.453Z,102160.36
2018-10-19T07:37:50.727Z,102159.86
2018-10-19T07:40:19.936Z,102160.02
2018-10-19T07:42:49.305Z,102166.48
2018-10-19T07:45:18.684Z,102170.35
2018-10-19T07:47:48.128Z,102165.16
2018-10-19T07:50:17.270Z,102170.10
2018-10-19T07:52:46.690Z,102170.64
2018-10-19T07:55:16.132Z,102172.62
2018-10-19T07:57:45.656Z,102179.39
2018-10-19T08:00:15.546Z,102177.86
2018-10-19T08:02:44.637Z,102182.00
2018-10-19T08:05:13.956Z,102181.36
2018-10-19T08:07:43.035Z,102186.83
2018-10-19T08:10:12.291Z,102194.64
2018-10-19T08:12:41.461Z,102185.28
2018-10-19T08:15:10.744Z,102189.92
2018-10-19T08:17:40.105Z,102197.20
2018-10-19T08:20:09.801Z,102198.20
2018-10-19T08:22:39.044Z,102201.91
2018-10-19T08:25:08.680Z,102206.25
2018-10-19T08:27:37.867Z,102207.23
2018-10-19T08:30:07.192Z,102206.72
2018-10-19T08:32:36.559Z,102210.61
2018-10-19T08:35:06.374Z,102203.75
2018-10-19T08:37:35.627Z,102202.02
2018-10-19T08:40:05.669Z,102207.64
2018-10-19T08:42:34.968Z,102205.59
2018-10-19T08:45:04.264Z,102202.75
2018-10-19T08:47:33.456Z,102203.52
2018-10-19T08:50:02.729Z,102207.21
2018-10-19T08:52:31.898Z,102207.92
2018-10-19T08:55:01.117Z,102198.15
2018-10-19T08:57:30.283Z,102200.16
2018-10-19T08:59:59.387Z,102203.36
2018-10-19T09:02:28.692Z,102205.85
2018-10-19T09:04:57.931Z,102205.84
2018-10-19T09:07:27.510Z,102206.28
2018-10-19T09:09:56.883Z,102210.90
2018-10-19T09:12:26.253Z,102209.97
2018-10-19T09:14:56.919Z,102209.75
2018-10-19T09:17:27.406Z,102208.45
2018-10-19T09:19:56.576Z,102211.86
2018-10-19T09:22:25.843Z,102208.05
2018-10-19T09:24:55.105Z,102212.73
2018-10-19T09:27:24.856Z,102212.15
2018-10-19T09:29:54.040Z,102215.36
2018-10-19T09:32:23.377Z,102206.15
2018-10-19T09:34:52.763Z,102213.59
2018-10-19T09:37:21.966Z,102216.37
2018-10-19T09:39:55.226Z,102216.14
2018-10-19T09:42:24.784Z,102211.39
2018-10-19T09:44:54.046Z,102213.10
2018-10-19T09:47:23.308Z,102200.05
2018-10-19T09:49:52.512Z,102212.47
2018-10-19T09:52:21.656Z,102209.66
2018-10-19T09:54:50.871Z,102208.53
2018-10-19T09:57:20.147Z,102202.80
2018-10-19T09:59:49.519Z,102196.29
2018-10-19T10:02:18.634Z,102197.38
2018-10-19T10:04:47.915Z,102191.36
2018-10-19T10:07:17.178Z,102191.67
2018-10-19T10:09:46.499Z,102190.86
2018-10-19T10:12:15.777Z,102185.31
2018-10-19T10:14:45.146Z,102184.75
2018-10-19T10:17:14.465Z,102181.98
2018-10-19T10:19:43.961Z,102182.83
2018-10-19T10:22:13.458Z,102187.77
2018-10-19T10:24:42.786Z,102183.64
2018-10-19T10:27:11.971Z,102177.32
2018-10-19T10:29:41.709Z,102190.86
2018-10-19T10:32:11.219Z,102180.62
2018-10-19T10:34:41.903Z,102178.73
2018-10-19T10:37:11.712Z,102170.75
2018-10-19T10:39:40.678Z,102171.52
2018-10-19T10:42:09.978Z,102160.30
2018-10-19T10:44:39.477Z,102167.54
2018-10-19T10:47:09.432Z,102170.27
2018-10-19T10:49:38.767Z,102167.54
2018-10-19T10:52:08.152Z,102162.89
2018-10-19T10:54:37.548Z,102157.16
2018-10-19T10:57:07.148Z,102156.06
2018-10-19T10:59:36.537Z,102156.89
2018-10-19T11:02:05.922Z,102152.78
2018-10-19T11:04:34.945Z,102156.06
2018-10-19T11:07:04.235Z,102156.98
2018-10-19T11:09:33.532Z,102148.67
2018-10-19T11:12:02.637Z,102148.95
2018-10-19T11:14:31.864Z,102147.56
2018-10-19T11:17:01.241Z,102139.47
2018-10-19T11:19:30.517Z,102133.08
2018-10-19T11:21:59.773Z,102128.55
2018-10-19T11:24:29.239Z,102130.49
2018-10-19T11:26:58.450Z,102130.12
2018-10-19T11:29:27.601Z,102124.36
2018-10-19T11:31:56.776Z,102126.19
2018-10-19T11:34:26.105Z,102125.12
2018-10-19T11:36:55.478Z,102123.52
2018-10-19T11:39:24.706Z,102120.58
2018-10-19T11:41:53.924Z,102124.54
2018-10-19T11:44:23.081Z,102119.61
2018-10-19T11:46:52.324Z,102125.11
2018-10-19T11:49:21.625Z,102129.41
2018-10-19T11:51:50.920Z,102127.52
2018-10-19T11:54:20.192Z,102132.35
2018-10-19T11:56:49.542Z,102120.68
2018-10-19T11:59:18.679Z,102121.37
2018-10-19T12:01:47.931Z,102123.97
2018-10-19T12:04:20.064Z,102128.05
2018-10-19T12:06:49.198Z,102121.22
2018-10-19T12:09:18.355Z,102125.44
2018-10-19T12:11:47.405Z,102121.59
2018-10-19T12:14:16.539Z,102120.84
2018-10-19T12:16:46.058Z,102123.34
2018-10-19T12:19:15.259Z,102122.17
2018-10-19T12:21:44.510Z,102117.97
2018-10-19T12:24:13.840Z,102120.03
2018-10-19T12:26:43.179Z,102121.50
2018-10-19T12:29:12.367Z,102124.34
2018-10-19T12:31:43.375Z,102115.23
2018-10-19T12:34:12.425Z,102115.42
2018-10-19T12:36:41.770Z,102116.93
2018-10-19T12:39:11.565Z,102115.77
2018-10-19T12:41:40.853Z,102106.58
2018-10-19T12:44:10.016Z,102113.97
2018-10-19T12:46:51.032Z,102103.54
2018-10-19T12:49:22.008Z,102098.14
2018-10-19T12:51:51.245Z,102094.67
2018-10-19T12:54:20.396Z,102093.95
2018-10-19T12:56:49.879Z,102095.90
2018-10-19T12:59:19.129Z,102096.23
2018-10-19T13:01:48.528Z,102096.11
2018-10-19T13:04:26.791Z,102090.06
2018-10-19T13:06:56.149Z,102091.66
2018-10-19T13:09:25.351Z,102094.27
2018-10-19T13:11:54.535Z,102090.25
2018-10-19T13:14:23.720Z,102081.97
2018-10-19T13:16:53.054Z,102082.67
2018-10-19T13:19:22.395Z,101888.50
2018-10-19T13:21:51.587Z,102079.77
2018-10-19T13:24:20.917Z,102075.00
2018-10-19T13:26:50.255Z,102078.96
2018-10-19T13:29:19.412Z,102078.92
2018-10-19T13:31:48.805Z,102079.87
2018-10-19T13:34:18.175Z,102074.38
2018-10-19T13:36:48.309Z,102068.68
2018-10-19T13:39:17.629Z,102070.42
2018-10-19T13:41:46.825Z,102069.08
2018-10-19T13:44:16.128Z,102066.94
2018-10-19T13:46:45.372Z,102065.73
2018-10-19T13:49:14.519Z,102061.13
2018-10-19T13:51:43.760Z,102050.56
2018-10-19T13:54:12.837Z,102047.58
2018-10-19T13:56:42.152Z,102050.31
2018-10-19T13:59:11.570Z,102050.09
2018-10-19T14:01:40.751Z,102051.25
2018-10-19T14:04:09.621Z,102052.96
2018-10-19T14:06:38.752Z,102051.30
2018-10-19T14:09:10.305Z,102046.39
2018-10-19T14:11:40.046Z,102043.12
2018-10-19T14:14:09.272Z,102045.58
2018-10-19T14:16:38.627Z,102043.09
2018-10-19T14:19:07.998Z,102045.08
2018-10-19T14:21:36.883Z,102040.06
2018-10-19T14:24:06.113Z,102043.09
2018-10-19T14:26:35.527Z,102054.92
2018-10-19T14:29:05.059Z,102046.45
2018-10-19T14:31:34.402Z,102036.85
2018-10-19T14:34:03.696Z,102042.08
2018-10-19T14:36:32.883Z,102039.33
2018-10-19T14:39:02.123Z,102039.87
2018-10-19T14:41:31.493Z,102045.36
2018-10-19T14:44:00.808Z,102051.98
2018-10-19T14:46:30.087Z,102050.87
2018-10-19T14:49:00.079Z,102050.08
2018-10-19T14:51:29.648Z,102052.55
2018-10-19T14:53:59.627Z,102052.02
2018-10-19T14:56:28.940Z,102051.71
2018-10-19T14:58:58.347Z,102053.11
2018-10-19T15:01:27.566Z,102050.61
2018-10-19T15:03:56.816Z,102050.37
2018-10-19T15:06:26.056Z,102049.23
2018-10-19T15:08:55.166Z,102047.84
2018-10-19T15:11:25.003Z,102048.14
2018-10-19T15:13:53.825Z,102047.84
2018-10-19T15:16:23.056Z,102050.87
2018-10-19T15:18:52.433Z,102051.13
2018-10-19T15:21:21.737Z,102057.73
2018-10-19T15:23:51.235Z,102059.37
2018-10-19T15:26:20.463Z,102050.23
2018-10-19T15:28:49.844Z,102052.45
2018-10-19T15:31:19.379Z,102057.39
2018-10-19T15:33:48.940Z,102053.24
2018-10-19T15:36:18.175Z,102051.05
2018-10-19T15:38:47.437Z,102058.95
2018-10-19T15:41:16.683Z,102064.41
2018-10-19T15:43:45.941Z,102060.34
2018-10-19T15:46:15.418Z,102057.72
2018-10-19T15:48:44.794Z,102054.09
2018-10-19T15:51:14.124Z,102055.12
2018-10-19T15:53:43.429Z,102049.25
2018-10-19T15:56:12.743Z,102043.39
2018-10-19T15:58:42.023Z,102053.05
2018-10-19T16:01:11.264Z,102057.02
2018-10-19T16:03:40.611Z,102067.63
2018-10-19T16:06:09.979Z,102065.34
2018-10-19T16:08:39.319Z,102063.83
2018-10-19T16:11:08.697Z,102059.53
2018-10-19T16:13:38.123Z,102063.00
2018-10-19T16:16:07.889Z,102067.55
2018-10-19T16:18:37.168Z,102069.06
2018-10-19T16:21:06.520Z,102069.54
2018-10-19T16:23:35.768Z,102080.11
2018-10-19T16:26:05.128Z,102076.41
2018-10-19T16:28:34.494Z,102077.95
2018-10-19T16:31:03.800Z,102081.70
2018-10-19T16:33:32.848Z,102084.01
2018-10-19T16:36:02.522Z,102087.75
2018-10-19T16:38:31.748Z,102090.69
2018-10-19T16:41:00.981Z,102089.42
2018-10-19T16:43:30.149Z,102093.38
2018-10-19T16:45:59.367Z,102095.15
2018-10-19T16:48:28.568Z,102102.66
2018-10-19T16:50:57.697Z,102105.83
2018-10-19T16:53:26.972Z,102106.19
2018-10-19T16:55:56.348Z,102103.67
2018-10-19T16:58:25.982Z,102103.55
2018-10-19T17:00:55.159Z,102100.20
2018-10-19T17:03:24.382Z,102107.50
2018-10-19T17:05:53.831Z,102115.81
2018-10-19T17:08:22.884Z,102113.11
2018-10-19T17:10:52.107Z,102110.28
2018-10-19T17:13:21.487Z,102115.39
2018-10-19T17:15:50.928Z,102114.16
2018-10-19T17:18:20.265Z,102121.23
2018-10-19T17:20:49.392Z,102117.06
2018-10-19T17:23:18.427Z,102119.62
2018-10-19T17:25:47.552Z,102126.86
2018-10-19T17:28:16.857Z,102123.95
2018-10-19T17:30:46.077Z,102126.05
2018-10-19T17:33:15.512Z,102127.23
2018-10-19T17:35:44.759Z,102125.30
2018-10-19T17:38:13.959Z,102117.95
2018-10-19T17:40:43.252Z,102132.14
2018-10-19T17:43:12.393Z,102123.95
2018-10-19T17:45:41.768Z,102131.80
2018-10-19T17:48:11.098Z,102131.99
2018-10-19T17:50:40.617Z,102142.95
2018-10-19T17:53:09.823Z,102139.27
2018-10-19T17:55:39.063Z,102145.94
2018-10-19T17:58:08.219Z,102128.53
2018-10-19T18:00:37.718Z,102147.41
2018-10-19T18:03:07.311Z,102150.49
2018-10-19T18:05:36.571Z,102152.73
2018-10-19T18:08:05.552Z,102158.55
2018-10-19T18:10:34.664Z,102154.16
2018-10-19T18:13:04.029Z,102157.77
2018-10-19T18:15:34.539Z,102160.06
2018-10-19T18:18:04.053Z,102164.91
2018-10-19T18:20:33.623Z,102168.22
2018-10-19T18:23:03.025Z,102171.47
2018-10-19T18:25:32.214Z,102176.19
2018-10-19T18:28:01.492Z,102181.80
2018-10-19T18:30:30.829Z,102177.80
2018-10-19T18:32:59.965Z,102176.70
2018-10-19T18:35:29.093Z,102183.13
2018-10-19T18:37:58.320Z,102181.09
2018-10-19T18:40:27.504Z,102180.64
2018-10-19T18:42:57.128Z,102183.38
2018-10-19T18:45:26.528Z,102190.44
2018-10-19T18:47:55.682Z,102188.46
2018-10-19T18:50:25.166Z,102194.77
2018-10-19T18:52:54.271Z,102197.35
2018-10-19T18:55:23.500Z,102193.95
2018-10-19T18:57:52.874Z,102201.52
2018-10-19T19:00:29.748Z,101948.69
2018-10-19T19:03:13.690Z,102208.34
2018-10-19T19:05:42.911Z,102204.53
2018-10-19T19:08:12.144Z,102192.30
2018-10-19T19:10:41.424Z,102204.70
2018-10-19T19:13:15.487Z,102206.95
2018-10-19T19:15:44.719Z,102202.56
2018-10-19T19:18:13.891Z,102207.11
2018-10-19T19:20:44.045Z,102205.51
2018-10-19T19:23:13.166Z,102209.74
2018-10-19T19:25:47.367Z,102204.98
2018-10-19T19:28:16.572Z,102213.52
2018-10-19T19:30:45.662Z,102208.48
2018-10-19T19:33:20.027Z,102211.29
2018-10-19T19:35:49.333Z,102205.84
2018-10-19T19:38:18.351Z,102210.86
2018-10-19T19:40:52.797Z,102209.45
2018-10-19T19:43:21.967Z,102218.24
2018-10-19T19:45:51.316Z,102210.75
2018-10-19T19:48:25.531Z,102210.95
2018-10-19T19:50:54.891Z,102211.43
2018-10-19T19:53:24.054Z,102211.47
2018-10-19T19:55:53.193Z,102206.45
2018-10-19T19:58:22.557Z,102211.83
2018-10-19T20:00:51.788Z,102216.50
2018-10-19T20:03:21.061Z,102213.76
2018-10-19T20:05:50.344Z,102212.92
2018-10-19T20:08:19.691Z,102217.69
2018-10-19T20:10:48.676Z,102214.91
2018-10-19T20:13:17.939Z,102212.75
2018-10-19T20:15:47.286Z,102215.48
2018-10-19T20:18:16.606Z,102220.16
2018-10-19T20:20:45.795Z,102224.23
2018-10-19T20:23:15.109Z,102215.45
2018-10-19T20:25:44.402Z,102210.53
2018-10-19T20:28:13.662Z,102218.00
2018-10-19T20:30:42.870Z,102217.73
2018-10-19T20:33:12.162Z,102207.83
2018-10-19T20:35:41.412Z,102226.96
2018-10-19T20:38:10.703Z,102227.38
2018-10-19T20:40:39.973Z,102224.62
2018-10-19T20:43:09.262Z,102232.95
2018-10-19T20:45:38.475Z,102226.96
2018-10-19T20:48:07.662Z,102224.17
2018-10-19T20:50:36.956Z,102225.84
2018-10-19T20:53:06.449Z,102227.00
2018-10-19T20:55:35.579Z,102223.86
2018-10-19T20:58:04.632Z,102227.38
2018-10-19T21:00:33.980Z,102219.87
2018-10-19T21:03:03.248Z,102219.15
2018-10-19T21:05:41.487Z,102224.30
2018-10-19T21:08:10.937Z,102220.72
2018-10-19T21:10:40.090Z,102225.61
2018-10-19T21:13:09.069Z,102220.25
2018-10-19T21:15:38.281Z,102221.43
2018-10-19T21:18:07.663Z,102214.81
2018-10-19T21:20:36.875Z,102212.55
2018-10-19T21:23:06.195Z,102209.02
2018-10-19T21:25:35.565Z,102209.42
2018-10-19T21:28:04.848Z,102209.17
2018-10-19T21:30:33.970Z,102204.73
2018-10-19T21:33:03.559Z,102196.25
2018-10-19T21:35:32.868Z,102192.12
2018-10-19T21:38:02.254Z,102199.77
2018-10-19T21:40:31.582Z,102193.73
2018-10-19T21:43:00.640Z,102199.14
2018-10-19T21:45:29.906Z,102196.04
2018-10-19T21:47:59.136Z,102199.13
2018-10-19T21:50:28.357Z,102194.77
2018-10-19T21:52:57.530Z,102194.48
2018-10-19T21:55:26.943Z,102197.49
2018-10-19T21:57:56.334Z,102195.52
2018-10-19T22:00:25.672Z,102197.19
2018-10-19T22:02:54.834Z,102192.09
2018-10-19T22:05:24.060Z,102192.48
2018-10-19T22:07:53.382Z,102206.49
2018-10-19T22:10:23.217Z,102208.50
2018-10-19T22:12:52.593Z,102203.48
2018-10-19T22:15:21.789Z,102207.17
2018-10-19T22:17:50.937Z,102207.09
2018-10-19T22:20:20.314Z,102204.50
2018-10-19T22:22:49.543Z,102199.79
2018-10-19T22:25:19.186Z,102204.39
2018-10-19T22:27:48.571Z,102214.92
2018-10-19T22:30:17.795Z,102211.05
2018-10-19T22:32:47.045Z,102210.25
2018-10-19T22:35:16.348Z,102209.09
2018-10-19T22:37:45.483Z,102214.22
2018-10-19T22:40:14.680Z,102210.70
2018-10-19T22:42:43.888Z,102212.05
2018-10-19T22:45:13.104Z,102221.14
2018-10-19T22:47:42.258Z,102223.34
2018-10-19T22:50:11.476Z,102223.63
2018-10-19T22:52:40.664Z,102231.16
2018-10-19T22:55:10.159Z,102239.18
2018-10-19T22:57:39.356Z,102232.30
2018-10-19T23:00:09.367Z,102235.23
2018-10-19T23:02:38.664Z,102232.60
2018-10-19T23:05:07.990Z,102225.94
2018-10-19T23:07:37.193Z,102224.58
2018-10-19T23:10:07.284Z,102215.91
2018-10-19T23:12:36.846Z,102214.25
2018-10-19T23:15:06.603Z,102206.97
2018-10-19T23:17:35.720Z,102199.76
2018-10-19T23:20:04.976Z,102208.12
2018-10-19T23:22:34.096Z,102215.19
2018-10-19T23:25:03.370Z,102213.13
2018-10-19T23:27:32.622Z,102214.15
2018-10-19T23:31:04.653Z,102211.98
2018-10-19T23:33:34.008Z,102219.06
2018-10-19T23:36:03.618Z,102165.33
2018-10-19T23:38:32.647Z,102221.65
2018-10-19T23:41:01.955Z,102216.36
2018-10-19T23:43:31.269Z,102217.59
2018-10-19T23:46:00.631Z,102217.81
2018-10-19T23:48:29.976Z,102219.77
2018-10-19T23:50:59.098Z,102224.68
2018-10-19T23:53:28.478Z,102227.17
2018-10-19T23:55:57.703Z,102229.28
2018-10-19T23:58:26.882Z,102237.61
